Time,TemperatureF,DewpointF,PressureIn,WindDirection,WindDirectionDegrees,WindSpeedMPH,WindSpeedGustMPH,Humidity,HourlyPrecipIn,Conditions,Clouds,dailyrainin,SoftwareType,DateUTC
2013-04-27 00:01:00,69.8,21.6,29.34,North,350,0.0,0.0,16,0.00,,---,0.00,VWS V14.01,2013-04-27 07:01:00,
2013-04-27 00:06:00,69.6,22.9,29.34,North,350,0.0,0.0,17,0.00,,---,0.00,VWS V14.01,2013-04-27 07:06:00,
2013-04-27 00:11:00,69.4,22.7,29.34,North,350,0.0,0.0,17,0.00,,---,0.00,VWS V14.01,2013-04-27 07:11:00,
2013-04-27 00:16:00,69.3,22.6,29.34,North,350,0.0,0.0,17,0.00,,---,0.00,VWS V14.01,2013-04-27 07:16:00,
2013-04-27 00:21:00,69.1,21.1,29.34,North,350,0.0,0.0,16,0.00,,---,0.00,VWS V14.01,2013-04-27 07:21:00,
2013-04-27 00:31:00,68.8,20.8,29.33,North,350,0.0,0.0,16,0.00,,---,0.00,VWS V14.01,2013-04-27 07:31:00,
2013-04-27 00:36:00,68.6,22.1,29.33,North,350,0.0,0.0,17,0.00,,---,0.00,VWS V14.01,2013-04-27 07:36:00,
2013-04-27 00:41:00,68.1,21.7,29.33,North,350,0.0,0.0,17,0.00,,---,0.00,VWS V14.01,2013-04-27 07:41:00,
2013-04-27 00:51:00,67.8,21.4,29.34,North,350,0.0,0.0,17,0.00,,---,0.00,VWS V14.01,2013-04-27 07:51:00,
2013-04-27 00:56:00,67.6,21.3,29.34,North,350,0.0,0.0,17,0.00,,---,0.00,VWS V14.01,2013-04-27 07:56:00,
2013-04-27 01:01:00,67.3,21.0,29.34,North,350,0.0,0.0,17,0.00,,---,0.00,VWS V14.01,2013-04-27 08:01:00,
2013-04-27 01:06:00,67.3,21.0,29.34,North,350,0.0,0.0,17,0.00,,---,0.00,VWS V14.01,2013-04-27 08:06:00,
2013-04-27 01:11:00,67.3,21.0,29.34,North,350,0.0,0.0,17,0.00,,---,0.00,VWS V14.01,2013-04-27 08:11:00,
2013-04-27 01:16:00,67.1,20.9,29.34,North,350,0.0,0.0,17,0.00,,---,0.00,VWS V14.01,2013-04-27 08:16:00,
2013-04-27 01:21:00,66.9,20.7,29.34,North,350,0.0,0.0,17,0.00,,---,0.00,VWS V14.01,2013-04-27 08:21:00,
2013-04-27 01:26:00,66.6,20.5,29.34,North,350,0.0,0.0,17,0.00,,---,0.00,VWS V14.01,2013-04-27 08:26:00,
2013-04-27 01:31:00,66.4,21.6,29.34,North,350,0.0,0.0,18,0.00,,---,0.00,VWS V14.01,2013-04-27 08:31:00,
2013-04-27 01:36:00,66.4,21.6,29.34,North,350,0.0,0.0,18,0.00,,---,0.00,VWS V14.01,2013-04-27 08:36:00,
2013-04-27 01:41:00,66.3,21.6,29.34,North,350,0.0,0.0,18,0.00,,---,0.00,VWS V14.01,2013-04-27 08:41:00,
2013-04-27 01:46:00,65.8,22.4,29.34,North,350,0.0,0.0,19,0.00,,---,0.00,VWS V14.01,2013-04-27 08:46:00,
2013-04-27 01:51:00,65.5,23.4,29.34,North,350,0.0,0.0,20,0.00,,---,0.00,VWS V14.01,2013-04-27 08:51:00,
2013-04-27 01:56:00,65.2,23.1,29.34,North,350,0.0,0.0,20,0.00,,---,0.00,VWS V14.01,2013-04-27 08:56:00,
2013-04-27 02:05:00,64.2,21.1,29.33,North,350,0.0,0.0,19,0.00,,---,0.00,VWS V14.01,2013-04-27 09:05:00,
2013-04-27 02:11:00,63.7,20.7,29.33,North,350,0.0,0.0,19,0.00,,---,0.00,VWS V14.01,2013-04-27 09:11:00,
2013-04-27 02:21:00,63.4,21.7,29.34,North,350,0.0,0.0,20,0.00,,---,0.00,VWS V14.01,2013-04-27 09:21:00,
2013-04-27 02:26:00,64.3,21.2,29.34,North,350,0.0,0.0,19,0.00,,---,0.00,VWS V14.01,2013-04-27 09:26:00,
2013-04-27 02:31:00,64.5,21.4,29.34,North,353,0.0,3.0,19,0.00,,---,0.00,VWS V14.01,2013-04-27 09:31:00,
2013-04-27 02:36:00,64.3,19.9,29.34,North,354,1.0,1.0,18,0.00,,---,0.00,VWS V14.01,2013-04-27 09:36:00,
2013-04-27 02:46:00,64.7,20.2,29.34,North,353,0.0,5.0,18,0.00,,---,0.00,VWS V14.01,2013-04-27 09:46:00,
2013-04-27 02:51:00,64.7,20.2,29.34,North,359,0.0,2.0,18,0.00,,---,0.00,VWS V14.01,2013-04-27 09:51:00,
2013-04-27 03:01:00,64.8,21.6,29.34,North,357,0.0,0.0,19,0.00,,---,0.00,VWS V14.01,2013-04-27 10:01:00,
2013-04-27 03:11:00,63.2,19.0,29.34,North,359,0.0,0.0,18,0.00,,---,0.00,VWS V14.01,2013-04-27 10:11:00,
2013-04-27 03:16:00,62.9,18.8,29.34,North,359,0.0,0.0,18,0.00,,---,0.00,VWS V14.01,2013-04-27 10:16:00,
2013-04-27 03:26:00,62.9,18.8,29.34,North,0,0.0,0.0,18,0.00,,---,0.00,VWS V14.01,2013-04-27 10:26:00,
2013-04-27 03:31:00,62.4,18.4,29.35,North,0,0.0,0.0,18,0.00,,---,0.00,VWS V14.01,2013-04-27 10:31:00,
2013-04-27 03:36:00,62.1,18.1,29.35,North,0,0.0,0.0,18,0.00,,---,0.00,VWS V14.01,2013-04-27 10:36:00,
2013-04-27 03:41:00,62.1,19.4,29.35,North,0,0.0,0.0,19,0.00,,---,0.00,VWS V14.01,2013-04-27 10:41:00,
2013-04-27 03:51:00,62.4,18.4,29.35,North,359,0.0,2.0,18,0.00,,---,0.00,VWS V14.01,2013-04-27 10:51:00,
2013-04-27 03:56:00,62.1,18.1,29.35,North,359,0.0,0.0,18,0.00,,---,0.00,VWS V14.01,2013-04-27 10:56:00,
2013-04-27 04:06:00,62.0,18.0,29.36,North,359,0.0,0.0,18,0.00,,---,0.00,VWS V14.01,2013-04-27 11:06:00,
2013-04-27 04:16:00,62.4,18.4,29.36,North,359,0.0,0.0,18,0.00,,---,0.00,VWS V14.01,2013-04-27 11:16:00,
2013-04-27 04:21:00,62.0,18.0,29.36,North,0,1.0,1.0,18,0.00,,---,0.00,VWS V14.01,2013-04-27 11:21:00,
2013-04-27 04:31:00,62.0,18.0,29.37,North,359,0.0,0.0,18,0.00,,---,0.00,VWS V14.01,2013-04-27 11:31:00,
2013-04-27 04:36:00,62.0,18.0,29.37,North,359,0.0,0.0,18,0.00,,---,0.00,VWS V14.01,2013-04-27 11:36:00,
2013-04-27 04:46:00,61.8,16.5,29.37,North,359,0.0,0.0,17,0.00,,---,0.00,VWS V14.01,2013-04-27 11:46:00,
2013-04-27 04:51:00,62.1,16.8,29.37,North,0,0.0,0.0,17,0.00,,---,0.00,VWS V14.01,2013-04-27 11:51:00,
2013-04-27 05:01:00,63.1,17.6,29.37,North,359,1.0,2.0,17,0.00,,---,0.00,VWS V14.01,2013-04-27 12:01:00,
2013-04-27 05:06:00,64.2,15.6,29.37,North,0,2.0,6.0,15,0.00,,---,0.00,VWS V14.01,2013-04-27 12:06:00,
2013-04-27 05:16:00,65.3,16.5,29.37,North,4,1.0,2.0,15,0.00,,---,0.00,VWS V14.01,2013-04-27 12:16:00,
2013-04-27 05:21:00,66.0,15.5,29.37,NNW,333,0.0,5.0,14,0.00,,---,0.00,VWS V14.01,2013-04-27 12:21:00,
2013-04-27 05:26:00,65.8,18.4,29.37,NNW,332,0.0,0.0,16,0.00,,---,0.00,VWS V14.01,2013-04-27 12:26:00,
2013-04-27 05:36:00,64.2,18.5,29.37,NNW,330,0.0,0.0,17,0.00,,---,0.00,VWS V14.01,2013-04-27 12:36:00,
2013-04-27 05:41:00,63.4,20.5,29.37,NNW,330,0.0,0.0,19,0.00,,---,0.00,VWS V14.01,2013-04-27 12:41:00,
2013-04-27 05:51:00,62.0,19.3,29.38,NNW,330,0.0,0.0,19,0.00,,---,0.00,VWS V14.01,2013-04-27 12:51:00,
2013-04-27 06:00:00,61.2,18.6,29.39,NNW,330,0.0,0.0,19,0.00,,---,0.00,VWS V14.01,2013-04-27 13:00:00,
2013-04-27 06:06:00,60.5,19.2,29.39,NNW,330,0.0,0.0,20,0.00,,---,0.00,VWS V14.01,2013-04-27 13:06:00,
2013-04-27 06:16:00,59.3,17.1,29.40,NNW,330,0.0,0.0,19,0.00,,---,0.00,VWS V14.01,2013-04-27 13:16:00,
2013-04-27 06:25:00,59.5,17.2,29.40,NNW,329,0.0,0.0,19,0.00,,---,0.00,VWS V14.01,2013-04-27 13:25:00,
2013-04-27 06:31:00,59.8,18.7,29.41,North,354,0.0,0.0,20,0.00,,---,0.00,VWS V14.01,2013-04-27 13:31:00,
2013-04-27 06:36:00,60.1,17.7,29.41,North,354,0.0,0.0,19,0.00,,---,0.00,VWS V14.01,2013-04-27 13:36:00,
2013-04-27 06:41:00,60.7,19.4,29.41,NNW,336,0.0,0.0,20,0.00,,---,0.00,VWS V14.01,2013-04-27 13:41:00,
2013-04-27 06:50:00,62.7,21.1,29.41,NNW,333,0.0,0.0,20,0.00,,---,0.00,VWS V14.01,2013-04-27 13:50:00,
2013-04-27 06:55:00,63.4,20.5,29.41,North,354,0.0,0.0,19,0.00,,---,0.00,VWS V14.01,2013-04-27 13:55:00,
2013-04-27 07:01:00,63.9,19.6,29.41,NNW,333,0.0,0.0,18,0.00,,---,0.00,VWS V14.01,2013-04-27 14:01:00,
2013-04-27 07:06:00,65.0,20.5,29.41,NNW,337,0.0,0.0,18,0.00,,---,0.00,VWS V14.01,2013-04-27 14:06:00,
2013-04-27 07:15:00,66.4,22.9,29.42,NNW,344,0.0,0.0,19,0.00,,---,0.00,VWS V14.01,2013-04-27 14:15:00,
2013-04-27 07:21:00,67.3,23.7,29.42,NNW,330,0.0,0.0,19,0.00,,---,0.00,VWS V14.01,2013-04-27 14:21:00,
2013-04-27 07:31:00,68.6,20.6,29.41,NNW,340,0.0,0.0,16,0.00,,---,0.00,VWS V14.01,2013-04-27 14:31:00,
2013-04-27 07:36:00,68.6,20.6,29.41,NNW,333,0.0,0.0,16,0.00,,---,0.00,VWS V14.01,2013-04-27 14:36:00,
2013-04-27 07:45:00,68.9,19.4,29.41,NNW,333,1.0,2.0,15,0.00,,---,0.00,VWS V14.01,2013-04-27 14:45:00,
2013-04-27 07:50:00,68.6,19.1,29.41,NNW,332,1.0,2.0,15,0.00,,---,0.00,VWS V14.01,2013-04-27 14:50:00,
2013-04-27 07:56:00,68.8,19.3,29.41,NNW,329,0.0,1.0,15,0.00,,---,0.00,VWS V14.01,2013-04-27 14:56:00,
2013-04-27 08:05:00,69.3,18.1,29.41,North,350,0.0,1.0,14,0.00,,---,0.00,VWS V14.01,2013-04-27 15:05:00,
2013-04-27 08:11:00,69.4,19.8,29.41,North,350,0.0,1.0,15,0.00,,---,0.00,VWS V14.01,2013-04-27 15:11:00,
2013-04-27 08:16:00,70.1,20.3,29.42,North,350,2.0,3.0,15,0.00,,---,0.00,VWS V14.01,2013-04-27 15:16:00,
2013-04-27 08:26:00,70.8,19.3,29.42,North,350,0.0,3.0,14,0.00,,---,0.00,VWS V14.01,2013-04-27 15:26:00,
2013-04-27 08:31:00,71.1,19.5,29.42,North,357,0.0,1.0,14,0.00,,---,0.00,VWS V14.01,2013-04-27 15:31:00,
2013-04-27 08:36:00,71.8,20.1,29.42,North,349,0.0,1.0,14,0.00,,---,0.00,VWS V14.01,2013-04-27 15:36:00,
2013-04-27 08:41:00,71.8,20.1,29.42,North,353,0.0,0.0,14,0.00,,---,0.00,VWS V14.01,2013-04-27 15:41:00,
2013-04-27 08:51:00,74.2,20.2,29.41,North,352,0.0,1.0,13,0.00,,---,0.00,VWS V14.01,2013-04-27 15:51:00,
2013-04-27 08:56:00,75.1,19.1,29.41,North,354,1.0,3.0,12,0.00,,---,0.00,VWS V14.01,2013-04-27 15:56:00,
2013-04-27 09:01:00,75.8,19.6,29.41,North,350,1.0,1.0,12,0.00,,---,0.00,VWS V14.01,2013-04-27 16:01:00,
2013-04-27 09:11:00,76.5,20.2,29.41,WNW,302,0.0,2.0,12,0.00,,---,0.00,VWS V14.01,2013-04-27 16:11:00,
2013-04-27 09:16:00,76.7,20.3,29.40,WNW,301,0.0,3.0,12,0.00,,---,0.00,VWS V14.01,2013-04-27 16:16:00,
2013-04-27 09:21:00,77.4,18.8,29.40,WNW,299,0.0,3.0,11,0.00,,---,0.00,VWS V14.01,2013-04-27 16:21:00,
2013-04-27 09:26:00,78.1,19.4,29.40,WNW,299,0.0,1.0,11,0.00,,---,0.00,VWS V14.01,2013-04-27 16:26:00,
2013-04-27 09:36:00,79.4,18.1,29.40,WNW,299,0.0,3.0,10,0.00,,---,0.00,VWS V14.01,2013-04-27 16:36:00,
2013-04-27 09:41:00,79.8,18.4,29.40,WNW,299,1.0,3.0,10,0.00,,---,0.00,VWS V14.01,2013-04-27 16:41:00,
2013-04-27 09:50:00,81.2,19.5,29.40,SSW,193,0.0,2.0,10,0.00,,---,0.00,VWS V14.01,2013-04-27 16:50:00,
2013-04-27 09:56:00,81.1,19.4,29.40,SSE,160,1.0,3.0,10,0.00,,---,0.00,VWS V14.01,2013-04-27 16:56:00,
2013-04-27 10:01:00,81.1,19.4,29.39,SSE,161,1.0,2.0,10,0.00,,---,0.00,VWS V14.01,2013-04-27 17:01:00,
2013-04-27 10:06:00,81.1,19.4,29.39,WSW,257,1.0,5.0,10,0.00,,---,0.00,VWS V14.01,2013-04-27 17:06:00,
2013-04-27 10:11:00,81.4,19.7,29.39,SSE,155,0.0,2.0,10,0.00,,---,0.00,VWS V14.01,2013-04-27 17:11:00,
2013-04-27 10:16:00,81.8,22.2,29.39,SE,133,0.0,1.0,11,0.00,,---,0.00,VWS V14.01,2013-04-27 17:16:00,
2013-04-27 10:25:00,81.8,20.0,29.39,SE,131,0.0,3.0,10,0.00,,---,0.00,VWS V14.01,2013-04-27 17:25:00,
2013-04-27 10:31:00,81.8,20.0,29.39,SSE,158,0.0,3.0,10,0.00,,---,0.00,VWS V14.01,2013-04-27 17:31:00,
2013-04-27 10:41:00,82.4,20.4,29.39,East,99,0.0,2.0,10,0.00,,---,0.00,VWS V14.01,2013-04-27 17:41:00,
2013-04-27 10:51:00,83.6,18.9,29.38,East,96,0.0,1.0,9,0.00,,---,0.00,VWS V14.01,2013-04-27 17:51:00,
2013-04-27 10:56:00,84.1,19.2,29.38,South,184,1.0,3.0,9,0.00,,---,0.00,VWS V14.01,2013-04-27 17:56:00,
2013-04-27 11:05:00,84.0,19.2,29.38,NNW,346,3.0,7.0,9,0.00,,---,0.00,VWS V14.01,2013-04-27 18:05:00,
2013-04-27 11:10:00,84.1,19.2,29.38,North,0,0.0,3.0,9,0.00,,---,0.00,VWS V14.01,2013-04-27 18:10:00,
2013-04-27 11:16:00,84.9,19.8,29.38,ESE,109,0.0,2.0,9,0.00,,---,0.00,VWS V14.01,2013-04-27 18:16:00,
2013-04-27 11:25:00,85.3,17.4,29.38,NW,306,1.0,3.0,8,0.00,,---,0.00,VWS V14.01,2013-04-27 18:25:00,
2013-04-27 11:31:00,85.7,17.7,29.37,North,350,0.0,2.0,8,0.00,,---,0.00,VWS V14.01,2013-04-27 18:31:00,
2013-04-27 11:36:00,85.9,17.8,29.37,NNE,18,0.0,1.0,8,0.00,,---,0.00,VWS V14.01,2013-04-27 18:36:00,
2013-04-27 11:41:00,86.5,18.3,29.37,North,353,1.0,1.0,8,0.00,,---,0.00,VWS V14.01,2013-04-27 18:41:00,
2013-04-27 11:51:00,87.4,21.7,29.36,ENE,58,2.0,3.0,9,0.00,,---,0.00,VWS V14.01,2013-04-27 18:51:00,
2013-04-27 11:56:00,87.2,21.6,29.36,ESE,102,0.0,3.0,9,0.00,,---,0.00,VWS V14.01,2013-04-27 18:56:00,
2013-04-27 12:01:00,86.5,18.3,29.35,East,99,0.0,5.0,8,0.00,,---,0.00,VWS V14.01,2013-04-27 19:01:00,
2013-04-27 12:10:00,86.7,18.4,29.35,WNW,292,1.0,6.0,8,0.00,,---,0.00,VWS V14.01,2013-04-27 19:10:00,
2013-04-27 12:16:00,86.5,18.3,29.34,SSE,165,0.0,7.0,8,0.00,,---,0.00,VWS V14.01,2013-04-27 19:16:00,
2013-04-27 12:26:00,87.0,21.4,29.34,South,191,2.0,7.0,9,0.00,,---,0.00,VWS V14.01,2013-04-27 19:26:00,
2013-04-27 12:35:00,87.0,18.7,29.33,SW,220,0.0,6.0,8,0.00,,---,0.00,VWS V14.01,2013-04-27 19:35:00,
2013-04-27 12:40:00,87.4,19.0,29.33,SE,141,2.0,7.0,8,0.00,,---,0.00,VWS V14.01,2013-04-27 19:40:00,
2013-04-27 12:45:00,87.0,18.7,29.32,SW,224,1.0,8.0,8,0.00,,---,0.00,VWS V14.01,2013-04-27 19:45:00,
2013-04-27 12:51:00,87.6,19.1,29.32,SSW,195,1.0,3.0,8,0.00,,---,0.00,VWS V14.01,2013-04-27 19:51:00,
2013-04-27 13:01:00,88.2,19.5,29.32,SSE,151,5.0,7.0,8,0.00,,---,0.00,VWS V14.01,2013-04-27 20:01:00,
2013-04-27 13:10:00,88.4,19.7,29.32,East,82,0.0,5.0,8,0.00,,---,0.00,VWS V14.01,2013-04-27 20:10:00,
2013-04-27 13:16:00,89.0,20.1,29.31,NNE,32,0.0,2.0,8,0.00,,---,0.00,VWS V14.01,2013-04-27 20:16:00,
2013-04-27 13:21:00,89.7,17.5,29.31,East,88,2.0,7.0,7,0.00,,---,0.00,VWS V14.01,2013-04-27 20:21:00,
2013-04-27 13:30:00,89.9,20.8,29.31,SW,230,3.0,3.0,8,0.00,,---,0.00,VWS V14.01,2013-04-27 20:30:00,
2013-04-27 13:35:00,88.8,20.0,29.31,NNW,337,3.0,5.0,8,0.00,,---,0.00,VWS V14.01,2013-04-27 20:35:00,
2013-04-27 13:40:00,89.0,20.1,29.31,NW,305,3.0,7.0,8,0.00,,---,0.00,VWS V14.01,2013-04-27 20:40:00,
2013-04-27 13:45:00,89.3,20.4,29.30,NE,51,0.0,3.0,8,0.00,,---,0.00,VWS V14.01,2013-04-27 20:45:00,
2013-04-27 13:51:00,90.1,23.7,29.30,East,88,2.0,2.0,9,0.00,,---,0.00,VWS V14.01,2013-04-27 20:51:00,
2013-04-27 13:56:00,90.7,21.4,29.30,North,11,4.0,6.0,8,0.00,,---,0.00,VWS V14.01,2013-04-27 20:56:00,
2013-04-27 14:01:00,90.7,21.4,29.29,ESE,119,0.0,4.0,8,0.00,,---,0.00,VWS V14.01,2013-04-27 21:01:00,
2013-04-27 14:11:00,90.7,21.4,29.29,NW,311,0.0,4.0,8,0.00,,---,0.00,VWS V14.01,2013-04-27 21:11:00,
2013-04-27 14:20:00,91.4,18.8,29.29,North,0,2.0,2.0,7,0.00,,---,0.00,VWS V14.01,2013-04-27 21:20:00,
2013-04-27 14:25:00,91.4,18.8,29.29,SSW,202,0.0,2.0,7,0.00,,---,0.00,VWS V14.01,2013-04-27 21:25:00,
2013-04-27 14:30:00,91.4,21.9,29.28,NE,56,0.0,7.0,8,0.00,,---,0.00,VWS V14.01,2013-04-27 21:30:00,
2013-04-27 14:36:00,91.6,22.0,29.28,NE,52,0.0,2.0,8,0.00,,---,0.00,VWS V14.01,2013-04-27 21:36:00,
2013-04-27 14:46:00,90.7,21.4,29.27,ESE,103,0.0,3.0,8,0.00,,---,0.00,VWS V14.01,2013-04-27 21:46:00,
2013-04-27 14:56:00,91.4,21.9,29.27,ENE,68,0.0,2.0,8,0.00,,---,0.00,VWS V14.01,2013-04-27 21:56:00,
2013-04-27 15:01:00,91.4,18.8,29.26,NE,34,0.0,8.0,7,0.00,,---,0.00,VWS V14.01,2013-04-27 22:01:00,
2013-04-27 15:11:00,91.8,22.2,29.26,SE,134,0.0,2.0,8,0.00,,---,0.00,VWS V14.01,2013-04-27 22:11:00,
2013-04-27 15:16:00,91.0,21.6,29.26,West,261,6.0,6.0,8,0.00,,---,0.00,VWS V14.01,2013-04-27 22:16:00,
2013-04-27 15:26:00,90.3,18.0,29.26,South,184,5.0,7.0,7,0.00,,---,0.00,VWS V14.01,2013-04-27 22:26:00,
2013-04-27 15:36:00,90.1,17.8,29.25,South,182,3.0,6.0,7,0.00,,---,0.00,VWS V14.01,2013-04-27 22:36:00,
2013-04-27 15:41:00,90.3,18.0,29.25,SE,130,6.0,12.0,7,0.00,,---,0.00,VWS V14.01,2013-04-27 22:41:00,
2013-04-27 15:46:00,90.3,18.0,29.24,SE,128,0.0,7.0,7,0.00,,---,0.00,VWS V14.01,2013-04-27 22:46:00,
2013-04-27 15:56:00,90.7,18.3,29.24,SSE,152,7.0,8.0,7,0.00,,---,0.00,VWS V14.01,2013-04-27 22:56:00,
2013-04-27 16:06:00,91.2,18.6,29.23,SSW,195,2.0,8.0,7,0.00,,---,0.00,VWS V14.01,2013-04-27 23:06:00,
2013-04-27 16:11:00,90.7,18.3,29.23,ESE,107,0.0,6.0,7,0.00,,---,0.00,VWS V14.01,2013-04-27 23:11:00,
2013-04-27 16:16:00,90.7,18.3,29.22,SSE,161,0.0,5.0,7,0.00,,---,0.00,VWS V14.01,2013-04-27 23:16:00,
2013-04-27 16:21:00,90.7,18.3,29.22,SE,143,6.0,6.0,7,0.00,,---,0.00,VWS V14.01,2013-04-27 23:21:00,
2013-04-27 16:31:00,91.0,18.5,29.22,East,82,0.0,8.0,7,0.00,,---,0.00,VWS V14.01,2013-04-27 23:31:00,
2013-04-27 16:36:00,91.0,18.5,29.22,SE,144,0.0,5.0,7,0.00,,---,0.00,VWS V14.01,2013-04-27 23:36:00,
2013-04-27 16:46:00,91.2,18.6,29.21,SSE,157,2.0,2.0,7,0.00,,---,0.00,VWS V14.01,2013-04-27 23:46:00,
2013-04-27 16:51:00,91.8,22.2,29.21,ESE,102,2.0,2.0,8,0.00,,---,0.00,VWS V14.01,2013-04-27 23:51:00,
2013-04-27 16:56:00,91.6,18.9,29.21,WNW,295,3.0,7.0,7,0.00,,---,0.00,VWS V14.01,2013-04-27 23:56:00,
2013-04-27 17:01:00,91.0,18.5,29.21,ESE,121,2.0,7.0,7,0.00,,---,0.00,VWS V14.01,2013-04-28 00:01:00,
2013-04-27 17:11:00,91.0,18.5,29.21,SE,137,3.0,3.0,7,0.00,,---,0.00,VWS V14.01,2013-04-28 00:11:00,
2013-04-27 17:16:00,91.0,18.5,29.21,ESE,110,1.0,6.0,7,0.00,,---,0.00,VWS V14.01,2013-04-28 00:16:00,
2013-04-27 17:21:00,91.0,18.5,29.21,East,93,0.0,7.0,7,0.00,,---,0.00,VWS V14.01,2013-04-28 00:21:00,
2013-04-27 17:26:00,91.0,21.6,29.21,ENE,68,0.0,4.0,8,0.00,,---,0.00,VWS V14.01,2013-04-28 00:26:00,
2013-04-27 17:31:00,91.4,18.8,29.20,South,186,4.0,4.0,7,0.00,,---,0.00,VWS V14.01,2013-04-28 00:31:00,
2013-04-27 17:36:00,90.7,18.3,29.20,SE,136,1.0,4.0,7,0.00,,---,0.00,VWS V14.01,2013-04-28 00:36:00,
2013-04-27 17:46:00,90.7,18.3,29.20,SSE,160,4.0,5.0,7,0.00,,---,0.00,VWS V14.01,2013-04-28 00:46:00,
2013-04-27 17:51:00,90.5,18.1,29.20,SSE,147,0.0,7.0,7,0.00,,---,0.00,VWS V14.01,2013-04-28 00:51:00,
2013-04-27 17:56:00,90.7,18.3,29.20,South,175,0.0,5.0,7,0.00,,---,0.00,VWS V14.01,2013-04-28 00:56:00,
2013-04-27 18:01:00,91.0,18.5,29.20,SSE,158,2.0,5.0,7,0.00,,---,0.00,VWS V14.01,2013-04-28 01:01:00,
2013-04-27 18:11:00,90.7,18.3,29.20,WSW,237,0.0,1.0,7,0.00,,---,0.00,VWS V14.01,2013-04-28 01:11:00,
2013-04-27 18:21:00,90.3,21.1,29.19,SW,215,0.0,3.0,8,0.00,,---,0.00,VWS V14.01,2013-04-28 01:21:00,
2013-04-27 18:30:00,89.9,20.8,29.18,South,185,0.0,1.0,8,0.00,,---,0.00,VWS V14.01,2013-04-28 01:30:00,
2013-04-27 18:35:00,89.9,20.8,29.18,ESE,110,0.0,1.0,8,0.00,,---,0.00,VWS V14.01,2013-04-28 01:35:00,
2013-04-27 18:41:00,89.7,20.6,29.18,SE,130,0.0,1.0,8,0.00,,---,0.00,VWS V14.01,2013-04-28 01:41:00,
2013-04-27 18:51:00,89.5,20.5,29.18,SE,140,0.0,1.0,8,0.00,,---,0.00,VWS V14.01,2013-04-28 01:51:00,
2013-04-27 18:56:00,89.3,20.4,29.18,East,89,0.0,3.0,8,0.00,,---,0.00,VWS V14.01,2013-04-28 01:56:00,
2013-04-27 19:01:00,89.0,20.1,29.18,SSW,192,0.0,2.0,8,0.00,,---,0.00,VWS V14.01,2013-04-28 02:01:00,
2013-04-27 19:06:00,88.6,19.8,29.18,South,172,0.0,0.0,8,0.00,,---,0.00,VWS V14.01,2013-04-28 02:06:00,
2013-04-27 19:16:00,88.0,19.4,29.17,ESE,103,0.0,0.0,8,0.00,,---,0.00,VWS V14.01,2013-04-28 02:16:00,
2013-04-27 19:21:00,87.8,19.2,29.17,West,278,0.0,0.0,8,0.00,,---,0.00,VWS V14.01,2013-04-28 02:21:00,
2013-04-27 19:31:00,87.4,21.7,29.17,SW,222,0.0,0.0,9,0.00,,---,0.00,VWS V14.01,2013-04-28 02:31:00,
2013-04-27 19:41:00,87.2,21.6,29.17,SSE,152,0.0,1.0,9,0.00,,---,0.00,VWS V14.01,2013-04-28 02:41:00,
2013-04-27 19:51:00,86.7,21.2,29.17,ESE,104,0.0,3.0,9,0.00,,---,0.00,VWS V14.01,2013-04-28 02:51:00,
2013-04-27 19:56:00,86.5,21.0,29.17,WNW,294,0.0,1.0,9,0.00,,---,0.00,VWS V14.01,2013-04-28 02:56:00,
2013-04-27 20:06:00,85.9,20.6,29.18,WNW,291,0.0,0.0,9,0.00,,---,0.00,VWS V14.01,2013-04-28 03:06:00,
2013-04-27 20:11:00,85.5,20.3,29.18,WNW,296,0.0,0.0,9,0.00,,---,0.00,VWS V14.01,2013-04-28 03:11:00,
2013-04-27 20:16:00,84.9,22.3,29.17,WSW,247,0.0,0.0,10,0.00,,---,0.00,VWS V14.01,2013-04-28 03:16:00,
2013-04-27 20:21:00,84.3,21.9,29.17,SW,215,0.0,0.0,10,0.00,,---,0.00,VWS V14.01,2013-04-28 03:21:00,
2013-04-27 20:26:00,83.8,23.8,29.17,SW,220,0.0,0.0,11,0.00,,---,0.00,VWS V14.01,2013-04-28 03:26:00,
2013-04-27 20:36:00,82.8,23.0,29.18,WSW,254,0.0,0.0,11,0.00,,---,0.00,VWS V14.01,2013-04-28 03:36:00,
2013-04-27 20:46:00,81.6,22.0,29.19,SW,232,0.0,0.0,11,0.00,,---,0.00,VWS V14.01,2013-04-28 03:46:00,
2013-04-27 20:55:00,80.9,21.5,29.19,SW,227,0.0,0.0,11,0.00,,---,0.00,VWS V14.01,2013-04-28 03:55:00,
2013-04-27 21:01:00,80.7,23.4,29.20,South,188,0.0,0.0,12,0.00,,---,0.00,VWS V14.01,2013-04-28 04:01:00,
2013-04-27 21:06:00,80.5,23.3,29.20,SE,128,0.0,0.0,12,0.00,,---,0.00,VWS V14.01,2013-04-28 04:06:00,
2013-04-27 21:11:00,80.3,23.1,29.20,SE,133,0.0,0.0,12,0.00,,---,0.00,VWS V14.01,2013-04-28 04:11:00,
2013-04-27 21:16:00,80.1,24.9,29.19,ESE,119,0.0,0.0,13,0.00,,---,0.00,VWS V14.01,2013-04-28 04:16:00,
2013-04-27 21:21:00,79.9,22.8,29.19,SSW,198,0.0,0.0,12,0.00,,---,0.00,VWS V14.01,2013-04-28 04:21:00,
2013-04-27 21:26:00,79.6,22.6,29.19,ESE,116,0.0,0.0,12,0.00,,---,0.00,VWS V14.01,2013-04-28 04:26:00,
2013-04-27 21:31:00,79.0,22.1,29.20,WSW,243,0.0,0.0,12,0.00,,---,0.00,VWS V14.01,2013-04-28 04:31:00,
2013-04-27 21:36:00,78.6,21.8,29.20,SW,229,0.0,0.0,12,0.00,,---,0.00,VWS V14.01,2013-04-28 04:36:00,
2013-04-27 21:41:00,78.5,21.7,29.20,WSW,247,0.0,0.0,12,0.00,,---,0.00,VWS V14.01,2013-04-28 04:41:00,
2013-04-27 21:46:00,77.7,21.1,29.20,NW,313,0.0,0.0,12,0.00,,---,0.00,VWS V14.01,2013-04-28 04:46:00,
2013-04-27 21:55:00,77.0,22.4,29.20,SW,217,1.0,2.0,13,0.00,,---,0.00,VWS V14.01,2013-04-28 04:55:00,
2013-04-27 22:01:00,76.8,22.3,29.20,SSW,193,0.0,1.0,13,0.00,,---,0.00,VWS V14.01,2013-04-28 05:01:00,
2013-04-27 22:11:00,76.7,22.2,29.20,South,181,0.0,0.0,13,0.00,,---,0.00,VWS V14.01,2013-04-28 05:11:00,
2013-04-27 22:21:00,76.5,22.0,29.20,West,278,0.0,0.0,13,0.00,,---,0.00,VWS V14.01,2013-04-28 05:21:00,
2013-04-27 22:26:00,76.3,21.9,29.20,WNW,291,0.0,0.0,13,0.00,,---,0.00,VWS V14.01,2013-04-28 05:26:00,
2013-04-27 22:36:00,75.6,21.3,29.20,East,93,0.0,0.0,13,0.00,,---,0.00,VWS V14.01,2013-04-28 05:36:00,
2013-04-27 22:41:00,75.1,22.7,29.20,ESE,119,0.0,0.0,14,0.00,,---,0.00,VWS V14.01,2013-04-28 05:41:00,
2013-04-27 22:51:00,74.4,22.1,29.20,ESE,113,0.0,0.0,14,0.00,,---,0.00,VWS V14.01,2013-04-28 05:51:00,
2013-04-27 23:01:00,74.6,22.3,29.20,SSE,157,0.0,0.0,14,0.00,,---,0.00,VWS V14.01,2013-04-28 06:01:00,
2013-04-27 23:06:00,74.4,22.1,29.20,WNW,295,0.0,0.0,14,0.00,,---,0.00,VWS V14.01,2013-04-28 06:06:00,
2013-04-27 23:11:00,74.2,22.0,29.20,SSE,157,0.0,0.0,14,0.00,,---,0.00,VWS V14.01,2013-04-28 06:11:00,
2013-04-27 23:16:00,74.0,21.8,29.19,WNW,285,0.0,0.0,14,0.00,,---,0.00,VWS V14.01,2013-04-28 06:16:00,
2013-04-27 23:21:00,73.9,23.4,29.19,SSW,195,0.0,0.0,15,0.00,,---,0.00,VWS V14.01,2013-04-28 06:21:00,
2013-04-27 23:31:00,73.5,23.1,29.18,WNW,294,0.0,0.0,15,0.00,,---,0.00,VWS V14.01,2013-04-28 06:31:00,
2013-04-27 23:36:00,73.2,24.4,29.18,SE,124,0.0,0.0,16,0.00,,---,0.00,VWS V14.01,2013-04-28 06:36:00,
2013-04-27 23:41:00,73.0,24.2,29.18,SSW,213,0.0,0.0,16,0.00,,---,0.00,VWS V14.01,2013-04-28 06:41:00,
2013-04-27 23:50:00,72.7,24.0,29.18,WSW,254,0.0,0.0,16,0.00,,---,0.00,VWS V14.01,2013-04-28 06:50:00,
2013-04-27 23:56:00,72.0,24.8,29.18,WSW,243,0.0,0.0,17,0.00,,---,0.00,VWS V14.01,2013-04-28 06:56:00,